Time;durP1;ratioP1;P1;durP2;ratioP2;P2;SDS_P1;SDS_P2;PMS_P1;PMS_P2;Temp;Humidity;BMP_temperature;BMP_pressure;BME280_temperature;BME280_humidity;BME280_pressure;Samples;Min_cycle;Max_cycle;Signal;HPM_P1;HPM_P2
2021/07/26 00:02:25;;;;;;;10.32;8.93;;;23.60;61.70;;;;;;5052681;28;20057;-61
2021/07/26 00:04:50;;;;;;;10.68;9.40;;;23.60;62.00;;;;;;5051974;28;20021;-61
2021/07/26 00:07:16;;;;;;;11.15;9.48;;;23.60;62.40;;;;;;5034722;28;20425;-61
2021/07/26 00:09:42;;;;;;;11.65;9.38;;;23.60;62.60;;;;;;5052371;28;20029;-61
2021/07/26 00:12:08;;;;;;;9.73;8.18;;;23.60;62.80;;;;;;5052265;28;20439;-61
2021/07/26 00:14:34;;;;;;;9.63;8.25;;;23.60;62.90;;;;;;5052520;28;20112;-61
2021/07/26 00:17:00;;;;;;;10.35;8.88;;;23.60;63.10;;;;;;5052248;28;20079;-61
2021/07/26 00:19:25;;;;;;;10.88;9.10;;;23.60;63.20;;;;;;5052135;28;20025;-61
2021/07/26 00:21:51;;;;;;;10.40;8.63;;;23.60;63.40;;;;;;5050920;28;20044;-61
2021/07/26 00:24:18;;;;;;;9.90;8.43;;;23.60;63.40;;;;;;5052431;28;20021;-61
2021/07/26 00:26:44;;;;;;;10.30;8.90;;;23.60;63.50;;;;;;5052182;28;20025;-61
2021/07/26 00:29:10;;;;;;;9.38;8.23;;;23.60;63.60;;;;;;5051616;28;20021;-61
2021/07/26 00:31:35;;;;;;;9.88;8.73;;;23.60;63.80;;;;;;5067309;28;20369;-61
2021/07/26 00:34:20;;;;;;;9.05;7.85;;;23.60;63.90;;;;;;5071990;28;20048;-61
2021/07/26 00:36:50;;;;;;;8.38;7.47;;;23.50;64.10;;;;;;5056656;28;20029;-61
2021/07/26 00:39:20;;;;;;;9.15;7.50;;;23.50;63.80;;;;;;5051650;28;20017;-61
2021/07/26 00:41:47;;;;;;;8.40;7.40;;;23.50;63.90;;;;;;5034081;28;20404;-61
2021/07/26 00:44:13;;;;;;;9.50;7.80;;;23.50;64.00;;;;;;5051893;28;20021;-62
2021/07/26 00:46:38;;;;;;;9.77;7.78;;;23.50;64.30;;;;;;5052011;28;20028;-61
2021/07/26 00:49:07;;;;;;;8.82;7.50;;;23.50;64.30;;;;;;5050725;28;20032;-61
2021/07/26 00:51:33;;;;;;;9.15;6.97;;;23.50;64.30;;;;;;5050757;28;20380;-61
2021/07/26 00:53:59;;;;;;;7.78;6.88;;;23.50;64.20;;;;;;5051287;28;20029;-61
2021/07/26 00:56:26;;;;;;;8.88;7.50;;;23.50;64.30;;;;;;5051505;28;20029;-61
2021/07/26 00:58:51;;;;;;;8.95;7.43;;;23.50;64.40;;;;;;5051416;28;20029;-61
2021/07/26 01:01:17;;;;;;;9.20;7.80;;;23.50;64.40;;;;;;5051933;28;20021;-61
2021/07/26 01:03:44;;;;;;;9.07;7.80;;;23.50;64.40;;;;;;5051541;28;20124;-62
2021/07/26 01:06:12;;;;;;;9.07;6.95;;;23.50;64.40;;;;;;5051657;28;20025;-61
2021/07/26 01:08:38;;;;;;;8.60;7.18;;;23.50;64.40;;;;;;5050159;28;20044;-61
2021/07/26 01:11:04;;;;;;;9.52;8.05;;;23.40;64.40;;;;;;5051180;28;20108;-61
2021/07/26 01:13:30;;;;;;;9.63;7.43;;;23.40;64.70;;;;;;5051190;28;20036;-61
2021/07/26 01:15:56;;;;;;;9.55;8.02;;;23.40;64.70;;;;;;5051414;28;20033;-61
2021/07/26 01:18:25;;;;;;;10.38;8.43;;;23.50;64.90;;;;;;5051781;28;20395;-61
2021/07/26 01:20:57;;;;;;;13.93;9.10;;;23.60;65.00;;;;;;5051007;28;20033;-61
2021/07/26 01:23:27;;;;;;;11.40;7.93;;;23.60;65.10;;;;;;5050791;28;20480;-61
2021/07/26 01:25:53;;;;;;;10.02;8.02;;;23.60;64.90;;;;;;5051084;28;20465;-61
2021/07/26 01:28:20;;;;;;;10.48;8.63;;;23.70;64.90;;;;;;5051324;28;20087;-61
2021/07/26 01:30:47;;;;;;;10.68;8.25;;;23.70;65.10;;;;;;5052139;28;20013;-61
2021/07/26 01:33:14;;;;;;;12.38;9.32;;;23.70;65.20;;;;;;5050478;28;20025;-62
2021/07/26 01:35:40;;;;;;;11.30;9.57;;;23.70;65.40;;;;;;5051009;28;20032;-61
2021/07/26 01:38:07;;;;;;;12.20;10.25;;;23.80;65.90;;;;;;5050927;28;20025;-61
2021/07/26 01:40:36;;;;;;;11.88;10.57;;;23.70;65.90;;;;;;5050993;28;20524;-61
2021/07/26 01:43:09;;;;;;;12.32;9.50;;;23.80;66.10;;;;;;5051124;28;20070;-61
2021/07/26 01:45:36;;;;;;;11.82;9.77;;;23.80;66.00;;;;;;5053779;28;20087;-61
2021/07/26 01:48:04;;;;;;;10.13;8.75;;;23.80;66.10;;;;;;5055369;28;20052;-62
2021/07/26 01:50:38;;;;;;;11.60;9.82;;;23.90;66.10;;;;;;5037264;28;20079;-61
2021/07/26 01:53:04;;;;;;;10.23;8.80;;;23.90;66.20;;;;;;5055043;28;20025;-62
2021/07/26 01:55:30;;;;;;;9.70;7.85;;;23.90;65.80;;;;;;5054837;28;20051;-61
2021/07/26 01:57:56;;;;;;;9.43;7.60;;;23.90;65.70;;;;;;5054987;28;20029;-61
2021/07/26 02:00:22;;;;;;;10.75;8.73;;;23.90;65.70;;;;;;5055010;28;20129;-61
2021/07/26 02:02:48;;;;;;;9.23;7.70;;;23.80;65.80;;;;;;5055056;28;20140;-61
2021/07/26 02:05:14;;;;;;;9.27;7.88;;;23.90;65.80;;;;;;5054930;28;20025;-61
2021/07/26 02:07:39;;;;;;;10.55;8.88;;;23.90;65.80;;;;;;5054907;28;20402;-62
2021/07/26 02:10:06;;;;;;;10.75;9.50;;;23.90;66.00;;;;;;5055022;28;20036;-61
2021/07/26 02:12:31;;;;;;;11.05;9.48;;;23.90;66.30;;;;;;5054326;28;20025;-61
2021/07/26 02:14:59;;;;;;;9.98;8.75;;;23.90;66.40;;;;;;5054574;28;20037;-61
2021/07/26 02:17:25;;;;;;;10.20;9.10;;;23.90;66.50;;;;;;5054317;28;20025;-61
2021/07/26 02:19:50;;;;;;;11.23;9.02;;;23.90;66.60;;;;;;5054614;28;20087;-61
2021/07/26 02:22:16;;;;;;;10.93;9.45;;;23.90;66.60;;;;;;5054547;28;20172;-61
2021/07/26 02:24:42;;;;;;;11.35;9.70;;;23.90;66.80;;;;;;5054402;28;20480;-61
2021/07/26 02:27:07;;;;;;;11.63;9.80;;;23.90;66.80;;;;;;5054483;28;20021;-61
2021/07/26 02:29:33;;;;;;;10.52;9.18;;;23.90;66.60;;;;;;5036745;28;20040;-61
2021/07/26 02:31:58;;;;;;;10.48;8.68;;;23.90;66.50;;;;;;5061011;28;20036;-61
2021/07/26 02:34:24;;;;;;;9.32;8.00;;;23.90;66.30;;;;;;5054287;28;20100;-61
2021/07/26 02:36:50;;;;;;;9.68;8.07;;;23.80;66.10;;;;;;5054534;28;20587;-60
2021/07/26 02:39:15;;;;;;;8.77;7.55;;;23.80;66.00;;;;;;5054181;28;20017;-61
2021/07/26 02:41:43;;;;;;;8.75;7.20;;;23.70;65.90;;;;;;5054407;28;20025;-61
2021/07/26 02:44:09;;;;;;;9.05;7.32;;;23.70;65.90;;;;;;5053931;28;20499;-61
2021/07/26 02:46:34;;;;;;;8.98;7.57;;;23.70;65.90;;;;;;5054522;28;20120;-61
2021/07/26 02:49:00;;;;;;;9.38;7.50;;;23.70;66.10;;;;;;5054557;28;20025;-60
2021/07/26 02:51:26;;;;;;;8.45;7.18;;;23.60;66.20;;;;;;5054357;28;20031;-61
2021/07/26 02:53:52;;;;;;;8.95;7.25;;;23.70;66.30;;;;;;5053630;28;20084;-60
2021/07/26 02:56:18;;;;;;;8.80;7.57;;;23.60;66.30;;;;;;5052349;28;20033;-61
2021/07/26 02:58:43;;;;;;;9.80;7.32;;;23.60;66.50;;;;;;5053665;28;20024;-61
2021/07/26 03:01:10;;;;;;;8.98;7.93;;;23.60;66.50;;;;;;5053450;28;20029;-61
2021/07/26 03:03:36;;;;;;;10.02;8.65;;;23.70;66.60;;;;;;5053866;28;20041;-60
2021/07/26 03:06:02;;;;;;;11.80;9.95;;;23.70;66.70;;;;;;5054045;28;20035;-60
2021/07/26 03:08:30;;;;;;;13.82;12.40;;;23.70;67.20;;;;;;5053985;28;20100;-61
2021/07/26 03:11:00;;;;;;;12.82;11.32;;;23.70;67.30;;;;;;5053623;28;20091;-60
2021/07/26 03:13:25;;;;;;;11.50;9.77;;;23.70;67.20;;;;;;5052401;28;20112;-61
2021/07/26 03:15:51;;;;;;;9.73;8.48;;;23.70;66.80;;;;;;5053527;28;20095;-60
2021/07/26 03:18:17;;;;;;;10.73;9.30;;;23.80;66.70;;;;;;5046345;28;20056;-61
2021/07/26 03:20:46;;;;;;;10.23;7.82;;;23.80;66.50;;;;;;5053455;28;20483;-61
2021/07/26 03:23:12;;;;;;;8.70;6.72;;;23.80;66.20;;;;;;5053359;28;20384;-61
2021/07/26 03:25:42;;;;;;;8.25;6.32;;;23.80;66.00;;;;;;5052934;28;20028;-61
2021/07/26 03:28:08;;;;;;;9.70;7.97;;;23.80;65.90;;;;;;5053493;28;20017;-61
2021/07/26 03:30:34;;;;;;;11.38;8.88;;;23.80;66.00;;;;;;5059253;28;20444;-61
2021/07/26 03:33:00;;;;;;;12.13;9.82;;;23.80;65.90;;;;;;5052568;28;20047;-61
2021/07/26 03:35:26;;;;;;;12.38;10.95;;;23.80;65.90;;;;;;5052705;28;20388;-61
2021/07/26 03:37:52;;;;;;;11.73;9.88;;;23.80;65.90;;;;;;5053413;28;20032;-62
2021/07/26 03:40:20;;;;;;;9.75;8.15;;;23.80;65.80;;;;;;5053118;28;20108;-62
2021/07/26 03:42:46;;;;;;;10.32;7.63;;;23.80;65.80;;;;;;5052870;28;20025;-62
2021/07/26 03:45:14;;;;;;;8.82;7.18;;;23.90;65.80;;;;;;5053074;28;20059;-62
2021/07/26 03:47:41;;;;;;;8.82;6.85;;;23.90;65.80;;;;;;5053238;28;20021;-62
2021/07/26 03:50:12;;;;;;;8.02;6.38;;;23.90;65.80;;;;;;5053036;28;20021;-62
2021/07/26 03:52:54;;;;;;;10.43;7.53;;;23.90;65.80;;;;;;5052416;28;20032;-61
2021/07/26 03:55:25;;;;;;;12.75;10.32;;;23.90;65.80;;;;;;5052640;28;20575;-61
2021/07/26 03:57:52;;;;;;;10.18;8.38;;;23.90;65.80;;;;;;5052674;28;20472;-61
2021/07/26 04:00:19;;;;;;;10.15;8.40;;;23.90;65.80;;;;;;5051835;28;20135;-61
2021/07/26 04:02:53;;;;;;;10.20;7.88;;;24.00;65.90;;;;;;5051136;28;20041;-62
2021/07/26 04:05:28;;;;;;;9.63;7.18;;;24.00;66.00;;;;;;5045631;28;20028;-62
2021/07/26 04:07:54;;;;;;;9.82;7.35;;;24.10;66.60;;;;;;5052176;28;20017;-62
2021/07/26 04:10:20;;;;;;;9.48;6.80;;;24.20;66.00;;;;;;5052542;28;20384;-61
2021/07/26 04:12:49;;;;;;;10.13;7.60;;;24.30;66.60;;;;;;5052034;28;20408;-61
2021/07/26 04:15:15;;;;;;;10.38;7.32;;;24.40;65.90;;;;;;5052200;28;20416;-62
2021/07/26 04:17:41;;;;;;;11.63;8.15;;;24.60;65.90;;;;;;5052398;28;20036;-62
2021/07/26 04:20:07;;;;;;;11.35;9.15;;;24.80;65.70;;;;;;5052055;28;20071;-62
2021/07/26 04:22:33;;;;;;;10.40;7.45;;;25.10;65.70;;;;;;5051682;28;20017;-62
2021/07/26 04:24:59;;;;;;;9.63;7.53;;;25.30;65.50;;;;;;5051166;28;20464;-62
2021/07/26 04:27:26;;;;;;;8.95;7.47;;;25.50;65.30;;;;;;5051797;28;20040;-62
2021/07/26 04:29:52;;;;;;;9.43;7.43;;;25.70;65.00;;;;;;5048555;28;20017;-62
2021/07/26 04:32:18;;;;;;;9.65;7.05;;;26.00;64.70;;;;;;5052189;28;20465;-63
2021/07/26 04:34:44;;;;;;;8.85;6.95;;;26.20;64.60;;;;;;5051746;28;20039;-62
2021/07/26 04:37:09;;;;;;;9.10;6.63;;;26.30;64.40;;;;;;5051715;28;20035;-62
2021/07/26 04:39:35;;;;;;;8.32;6.50;;;26.50;64.40;;;;;;5052313;28;20137;-62
2021/07/26 04:42:00;;;;;;;8.77;6.93;;;26.60;64.30;;;;;;5052039;28;20056;-62
2021/07/26 04:44:26;;;;;;;9.15;6.85;;;26.60;64.20;;;;;;5051896;28;20063;-63
2021/07/26 04:46:52;;;;;;;8.43;6.30;;;26.70;64.10;;;;;;5051820;28;20040;-62
2021/07/26 04:49:19;;;;;;;8.25;6.30;;;26.70;63.90;;;;;;5052110;28;20021;-62
2021/07/26 04:51:45;;;;;;;8.35;6.10;;;26.70;63.90;;;;;;5051861;28;20075;-62
2021/07/26 04:54:11;;;;;;;8.93;6.95;;;26.80;63.90;;;;;;5051939;28;20029;-63
2021/07/26 04:56:37;;;;;;;10.27;7.60;;;26.80;63.90;;;;;;5051316;28;20033;-63
2021/07/26 04:59:02;;;;;;;9.02;6.82;;;26.80;63.80;;;;;;5051614;28;20495;-62
2021/07/26 05:01:28;;;;;;;9.05;7.43;;;26.80;63.80;;;;;;5050900;28;20112;-62
2021/07/26 05:03:54;;;;;;;10.55;7.43;;;26.80;64.00;;;;;;5050840;28;20037;-62
2021/07/26 05:06:20;;;;;;;10.85;7.75;;;26.70;64.00;;;;;;5051412;28;20036;-62
2021/07/26 05:08:46;;;;;;;9.77;7.53;;;26.70;64.10;;;;;;5051112;28;20063;-62
2021/07/26 05:11:11;;;;;;;9.95;7.75;;;26.70;64.10;;;;;;5051443;28;20101;-62
2021/07/26 05:13:37;;;;;;;9.50;7.38;;;26.70;64.30;;;;;;5051280;28;20033;-61
2021/07/26 05:16:03;;;;;;;9.65;7.70;;;26.60;64.30;;;;;;5051970;28;20036;-61
2021/07/26 05:18:28;;;;;;;9.82;7.38;;;26.60;64.40;;;;;;5051185;28;20033;-62
2021/07/26 05:20:55;;;;;;;9.25;7.07;;;26.60;64.50;;;;;;5051849;28;20037;-62
2021/07/26 05:23:20;;;;;;;8.30;6.60;;;26.60;64.50;;;;;;5051320;28;20025;-62
2021/07/26 05:25:46;;;;;;;8.45;6.57;;;26.60;64.50;;;;;;5050498;28;20078;-62
2021/07/26 05:28:13;;;;;;;9.45;6.63;;;26.60;64.40;;;;;;5050846;28;20021;-62
2021/07/26 05:30:39;;;;;;;7.28;5.60;;;26.60;64.50;;;;;;5050420;28;20024;-62
2021/07/26 05:33:05;;;;;;;7.53;5.57;;;26.60;64.60;;;;;;5050266;28;20025;-62
2021/07/26 05:35:31;;;;;;;8.18;5.65;;;26.70;64.70;;;;;;5049549;28;20518;-62
2021/07/26 05:37:57;;;;;;;7.90;5.88;;;26.70;64.60;;;;;;5050012;28;20029;-62
2021/07/26 05:40:23;;;;;;;7.63;5.70;;;26.70;64.70;;;;;;5051117;28;20025;-62
2021/07/26 05:42:48;;;;;;;7.20;5.60;;;26.70;64.70;;;;;;5050977;28;20037;-63
2021/07/26 05:45:14;;;;;;;7.22;5.57;;;26.80;64.80;;;;;;5051069;28;20449;-62
2021/07/26 05:47:40;;;;;;;7.32;5.50;;;26.80;64.70;;;;;;5050914;28;20033;-63
2021/07/26 05:50:06;;;;;;;7.47;5.20;;;26.90;64.60;;;;;;5049845;28;20354;-62
2021/07/26 05:52:32;;;;;;;7.60;5.45;;;26.90;64.50;;;;;;5050553;28;20100;-62
2021/07/26 05:54:58;;;;;;;7.25;5.35;;;27.00;64.40;;;;;;5043191;28;20113;-63
2021/07/26 05:57:26;;;;;;;8.57;5.93;;;27.10;64.40;;;;;;5050285;28;20078;-63
2021/07/26 05:59:55;;;;;;;7.93;5.60;;;27.10;64.40;;;;;;5050536;28;20031;-62
2021/07/26 06:02:21;;;;;;;9.07;6.25;;;27.20;64.50;;;;;;5050113;28;20057;-63
2021/07/26 06:04:47;;;;;;;8.73;6.20;;;27.30;64.60;;;;;;5050391;28;20040;-63
2021/07/26 06:07:13;;;;;;;7.28;5.65;;;27.30;64.60;;;;;;5049951;28;20033;-62
2021/07/26 06:09:39;;;;;;;8.23;6.13;;;27.40;64.70;;;;;;5050898;28;20104;-62
2021/07/26 06:12:04;;;;;;;9.02;6.55;;;27.40;64.70;;;;;;5049224;28;20431;-62
2021/07/26 06:14:30;;;;;;;8.20;6.53;;;27.50;64.80;;;;;;5050620;28;20096;-61
2021/07/26 06:16:59;;;;;;;9.60;7.22;;;27.50;64.90;;;;;;5050818;28;20059;-62
2021/07/26 06:19:26;;;;;;;8.63;7.00;;;27.50;65.00;;;;;;5050769;28;20049;-62
2021/07/26 06:21:54;;;;;;;10.13;7.30;;;27.50;65.00;;;;;;5050477;28;20028;-62
2021/07/26 06:24:21;;;;;;;9.68;7.35;;;27.50;65.10;;;;;;5032606;28;20036;-63
2021/07/26 06:26:47;;;;;;;9.82;7.50;;;27.60;65.20;;;;;;5049975;28;20025;-62
2021/07/26 06:29:14;;;;;;;8.75;7.03;;;27.60;65.30;;;;;;5050033;28;20120;-63
2021/07/26 06:31:42;;;;;;;9.00;7.15;;;27.70;65.20;;;;;;5055590;28;20468;-63
2021/07/26 06:34:09;;;;;;;8.98;7.00;;;27.80;65.10;;;;;;5053298;28;20033;-62
2021/07/26 06:36:41;;;;;;;8.15;6.43;;;27.90;65.10;;;;;;5054115;28;20426;-62
2021/07/26 06:39:09;;;;;;;8.85;6.35;;;27.90;65.10;;;;;;5054216;28;20021;-62
2021/07/26 06:41:35;;;;;;;8.60;6.43;;;28.00;64.70;;;;;;5053884;28;20036;-63
2021/07/26 06:44:01;;;;;;;10.98;8.00;;;28.20;64.70;;;;;;5053906;28;20079;-62
2021/07/26 06:46:27;;;;;;;9.93;8.10;;;28.30;64.60;;;;;;5053079;28;20056;-62
2021/07/26 06:48:52;;;;;;;9.15;7.28;;;28.40;64.30;;;;;;5053272;28;20518;-63
2021/07/26 06:51:18;;;;;;;10.27;7.30;;;28.40;64.30;;;;;;5054096;28;20060;-62
2021/07/26 06:53:44;;;;;;;10.63;7.32;;;28.50;64.10;;;;;;5054181;28;20029;-63
2021/07/26 06:56:11;;;;;;;10.02;7.30;;;28.60;64.00;;;;;;5053006;28;20040;-63
2021/07/26 06:58:38;;;;;;;9.50;7.07;;;28.60;63.70;;;;;;5053635;28;20056;-63
2021/07/26 07:01:14;;;;;;;8.57;6.55;;;28.70;63.60;;;;;;5054018;28;20025;-63
2021/07/26 07:03:45;;;;;;;9.38;6.95;;;28.80;63.40;;;;;;5033593;28;20041;-63
2021/07/26 07:06:15;;;;;;;10.02;7.70;;;28.80;63.20;;;;;;5033747;28;20087;-63
2021/07/26 07:08:42;;;;;;;9.23;6.57;;;28.90;63.00;;;;;;5033741;28;20047;-63
2021/07/26 07:11:10;;;;;;;8.60;6.85;;;28.90;62.90;;;;;;5033125;28;20039;-63
2021/07/26 07:13:37;;;;;;;8.55;6.45;;;28.90;62.90;;;;;;5041991;28;20028;-61
2021/07/26 07:16:17;;;;;;;8.75;7.03;;;28.90;62.80;;;;;;5052756;28;20040;-63
2021/07/26 07:18:47;;;;;;;8.60;7.10;;;28.90;62.60;;;;;;5036631;28;20036;-62
2021/07/26 07:21:27;;;;;;;8.27;6.72;;;29.00;62.60;;;;;;5053008;28;20501;-63
2021/07/26 07:23:55;;;;;;;9.52;7.05;;;29.00;62.40;;;;;;5052856;28;20075;-63
2021/07/26 07:26:22;;;;;;;9.02;6.57;;;29.00;62.30;;;;;;5052615;28;20468;-62
2021/07/26 07:28:49;;;;;;;7.90;6.38;;;29.20;62.20;;;;;;5052969;28;20583;-62
2021/07/26 07:31:17;;;;;;;9.07;7.47;;;29.20;62.00;;;;;;5060201;28;20053;-62
2021/07/26 07:33:44;;;;;;;7.95;6.60;;;29.20;61.70;;;;;;5052986;28;20054;-63
2021/07/26 07:36:10;;;;;;;9.70;6.35;;;29.30;62.20;;;;;;5052669;28;20032;-63
2021/07/26 07:38:36;;;;;;;8.10;6.53;;;29.40;61.40;;;;;;5052595;28;20029;-63
2021/07/26 07:41:04;;;;;;;8.80;6.50;;;29.50;61.10;;;;;;5052862;28;20075;-62
2021/07/26 07:43:30;;;;;;;8.23;6.53;;;29.60;61.00;;;;;;5051478;28;20024;-63
2021/07/26 07:45:58;;;;;;;7.88;6.28;;;29.70;60.60;;;;;;5052967;28;20380;-63
2021/07/26 07:48:25;;;;;;;9.50;7.30;;;29.80;60.60;;;;;;5052507;28;20021;-63
2021/07/26 07:50:55;;;;;;;10.68;7.28;;;30.00;60.50;;;;;;5052650;28;20024;-62
2021/07/26 07:53:21;;;;;;;9.23;7.75;;;30.10;60.50;;;;;;5052902;28;20379;-62
2021/07/26 07:55:49;;;;;;;8.95;7.30;;;30.20;60.50;;;;;;5052889;28;20022;-62
2021/07/26 07:58:16;;;;;;;9.93;7.53;;;30.20;60.60;;;;;;5051456;28;20480;-63
2021/07/26 08:00:41;;;;;;;11.77;8.13;;;30.30;60.70;;;;;;5051821;28;20107;-63
2021/07/26 08:03:08;;;;;;;9.63;8.40;;;30.50;60.70;;;;;;5052104;28;20143;-63
2021/07/26 08:05:34;;;;;;;10.02;7.50;;;30.60;60.30;;;;;;5052069;28;20017;-63
2021/07/26 08:08:00;;;;;;;11.07;8.35;;;30.70;60.50;;;;;;5072289;28;20090;-61
2021/07/26 08:10:25;;;;;;;10.52;8.32;;;30.90;60.30;;;;;;5071960;28;20028;-62
2021/07/26 08:12:51;;;;;;;9.40;8.07;;;31.10;60.00;;;;;;5071737;28;20039;-62
2021/07/26 08:15:18;;;;;;;9.93;7.72;;;31.30;59.70;;;;;;5072630;28;20107;-63
2021/07/26 08:17:46;;;;;;;9.90;7.57;;;31.40;59.30;;;;;;5072636;28;20383;-62
2021/07/26 08:20:13;;;;;;;10.93;7.57;;;31.60;59.20;;;;;;5072246;28;20086;-62
2021/07/26 08:22:39;;;;;;;10.68;7.25;;;31.90;59.10;;;;;;5071356;28;20131;-63
2021/07/26 08:25:06;;;;;;;9.13;7.53;;;32.20;59.00;;;;;;5052545;28;20096;-63
2021/07/26 08:28:12;;;;;;;10.48;7.85;;;32.50;58.40;;;;;;5060751;28;20052;-63
2021/07/26 08:30:39;;;;;;;10.35;8.23;;;32.70;57.40;;;;;;5051569;28;20052;-63
2021/07/26 08:33:05;;;;;;;11.20;8.18;;;33.00;57.40;;;;;;5071544;28;20020;-63
2021/07/26 08:35:31;;;;;;;10.00;8.25;;;33.30;57.20;;;;;;5071868;28;20037;-62
2021/07/26 08:37:57;;;;;;;11.23;9.13;;;33.60;56.50;;;;;;5072439;28;20701;-62
2021/07/26 08:40:25;;;;;;;11.65;9.18;;;33.80;56.10;;;;;;5072190;28;20062;-63
2021/07/26 08:42:52;;;;;;;10.57;8.45;;;34.10;55.80;;;;;;5072002;28;20028;-63
2021/07/26 08:45:18;;;;;;;10.40;8.68;;;34.40;55.40;;;;;;5073046;28;20048;-63
2021/07/26 08:47:46;;;;;;;10.15;8.35;;;34.70;54.90;;;;;;5081427;28;20025;-62
2021/07/26 08:50:14;;;;;;;10.95;8.75;;;34.90;54.50;;;;;;5087836;28;20035;-61
2021/07/26 08:52:42;;;;;;;9.70;8.38;;;35.10;54.10;;;;;;5072692;28;20387;-63
2021/07/26 08:55:13;;;;;;;9.18;7.72;;;35.30;54.00;;;;;;5071599;28;20025;-62
2021/07/26 08:57:43;;;;;;;9.98;7.95;;;35.60;53.60;;;;;;5071239;28;20051;-61
2021/07/26 09:00:11;;;;;;;9.32;8.05;;;35.90;53.20;;;;;;5071606;28;20044;-63
2021/07/26 09:02:37;;;;;;;9.18;7.68;;;36.30;52.70;;;;;;5070257;28;20034;-63
2021/07/26 09:05:03;;;;;;;8.45;7.43;;;36.60;52.40;;;;;;5071470;28;20027;-62
2021/07/26 09:07:28;;;;;;;9.68;7.10;;;36.80;51.90;;;;;;5070953;28;20402;-63
2021/07/26 09:09:54;;;;;;;9.35;7.10;;;37.10;51.80;;;;;;5071301;28;20031;-65
2021/07/26 09:12:36;;;;;;;7.97;7.13;;;37.40;51.00;;;;;;5067767;28;20082;-62
2021/07/26 09:15:06;;;;;;;9.90;7.63;;;37.70;50.50;;;;;;5052942;28;20028;-63
2021/07/26 09:17:45;;;;;;;9.07;7.13;;;38.10;49.80;;;;;;5071175;28;20037;-62
2021/07/26 09:20:13;;;;;;;8.13;6.93;;;38.30;48.90;;;;;;5071122;28;20024;-61
2021/07/26 09:22:46;;;;;;;9.10;7.10;;;38.60;48.70;;;;;;5070944;28;20443;-62
2021/07/26 09:25:30;;;;;;;8.13;6.47;;;38.80;48.30;;;;;;5071058;28;20033;-63
2021/07/26 09:28:03;;;;;;;9.02;5.90;;;38.90;46.60;;;;;;5070812;28;20021;-62
2021/07/26 09:30:35;;;;;;;8.63;6.30;;;39.00;47.90;;;;;;5064897;28;20603;-63
2021/07/26 09:33:02;;;;;;;8.57;5.85;;;39.30;47.50;;;;;;5070819;28;20036;-63
2021/07/26 09:35:28;;;;;;;7.82;5.57;;;39.50;47.10;;;;;;5071243;28;20037;-62
2021/07/26 09:37:58;;;;;;;8.25;5.88;;;39.70;46.50;;;;;;5070794;28;20105;-62
2021/07/26 09:40:27;;;;;;;8.60;6.00;;;39.90;45.90;;;;;;5071036;28;20498;-63
2021/07/26 09:42:53;;;;;;;8.57;5.72;;;40.00;45.30;;;;;;5070464;28;20024;-63
2021/07/26 09:45:23;;;;;;;7.95;5.72;;;40.20;44.90;;;;;;5071000;28;20020;-62
2021/07/26 09:48:09;;;;;;;9.38;5.68;;;40.30;44.10;;;;;;5070794;28;20029;-63
2021/07/26 09:50:50;;;;;;;6.63;5.15;;;40.40;41.50;;;;;;5070878;28;20025;-63
2021/07/26 09:53:17;;;;;;;7.18;5.53;;;40.50;43.20;;;;;;5070617;28;20154;-62
2021/07/26 09:55:48;;;;;;;7.30;5.22;;;40.60;43.20;;;;;;5052763;28;20037;-63
2021/07/26 09:58:15;;;;;;;7.00;4.70;;;40.70;42.70;;;;;;5071015;28;20391;-63
2021/07/26 10:00:42;;;;;;;6.07;4.00;;;40.80;42.10;;;;;;5070575;28;20044;-63
2021/07/26 10:03:15;;;;;;;5.82;4.20;;;41.00;41.90;;;;;;5067888;28;20377;-62
2021/07/26 10:05:42;;;;;;;6.82;4.20;;;41.30;41.10;;;;;;5040393;28;20183;-63
2021/07/26 10:08:09;;;;;;;5.93;4.32;;;41.60;40.80;;;;;;5055284;28;20471;-64
2021/07/26 10:10:40;;;;;;;6.10;4.60;;;41.80;40.10;;;;;;5074627;28;20066;-63
2021/07/26 10:13:07;;;;;;;7.18;4.55;;;41.90;39.90;;;;;;5053428;28;20028;-62
2021/07/26 10:15:34;;;;;;;7.13;4.63;;;42.20;39.50;;;;;;5072641;28;20055;-63
2021/07/26 10:18:00;;;;;;;7.32;4.78;;;42.40;39.00;;;;;;5069962;28;20043;-62
2021/07/26 10:20:39;;;;;;;7.97;5.28;;;42.30;37.70;;;;;;5061864;28;20033;-62
2021/07/26 10:23:15;;;;;;;6.47;4.80;;;41.90;36.90;;;;;;5062334;28;20059;-63
2021/07/26 10:25:40;;;;;;;7.00;4.70;;;41.20;36.40;;;;;;5085748;28;20174;-63
2021/07/26 10:28:34;;;;;;;6.38;4.47;;;40.90;37.70;;;;;;5059961;28;20539;-62
2021/07/26 10:31:00;;;;;;;6.70;4.45;;;41.00;37.30;;;;;;5068539;28;20090;-63
2021/07/26 10:33:25;;;;;;;5.78;4.38;;;41.20;37.70;;;;;;5091802;28;20107;-62
2021/07/26 10:35:53;;;;;;;5.90;4.28;;;41.40;37.60;;;;;;5081874;28;20016;-62
2021/07/26 10:38:37;;;;;;;6.38;4.22;;;41.80;37.70;;;;;;5081641;28;20029;-63
2021/07/26 10:41:03;;;;;;;6.80;4.57;;;42.20;36.50;;;;;;5068824;28;20025;-63
2021/07/26 10:43:55;;;;;;;5.60;4.07;;;42.40;36.40;;;;;;5054096;28;20033;-63
2021/07/26 10:46:21;;;;;;;6.32;4.00;;;42.50;35.90;;;;;;5054583;28;20066;-62
2021/07/26 10:48:53;;;;;;;5.35;3.75;;;42.70;36.10;;;;;;5073870;28;20055;-64
2021/07/26 10:51:36;;;;;;;6.38;3.80;;;42.80;36.00;;;;;;5071007;28;20430;-62
2021/07/26 10:54:02;;;;;;;6.18;4.10;;;43.00;35.80;;;;;;5092452;28;20031;-63
2021/07/26 10:56:28;;;;;;;6.20;3.80;;;43.10;36.20;;;;;;5073780;28;20029;-63
2021/07/26 10:59:03;;;;;;;5.53;4.00;;;43.30;36.00;;;;;;5070152;28;20025;-62
2021/07/26 11:01:29;;;;;;;6.15;4.22;;;43.60;35.90;;;;;;5067789;28;20043;-62
2021/07/26 11:03:56;;;;;;;5.85;4.18;;;43.80;35.60;;;;;;5074221;28;20048;-62
2021/07/26 11:06:34;;;;;;;5.82;3.83;;;43.90;34.80;;;;;;5058046;28;20353;-62
2021/07/26 11:09:44;;;;;;;6.30;4.00;;;44.00;34.30;;;;;;5071356;28;20384;-62
2021/07/26 11:12:09;;;;;;;6.80;4.18;;;44.20;34.60;;;;;;5066487;28;20454;-62
2021/07/26 11:14:35;;;;;;;5.28;4.10;;;44.30;34.70;;;;;;5053476;28;20067;-64
2021/07/26 11:17:07;;;;;;;6.22;3.80;;;44.50;34.50;;;;;;5060949;28;20102;-63
2021/07/26 11:19:41;;;;;;;5.20;3.90;;;44.70;34.50;;;;;;5070578;28;20020;-62
2021/07/26 11:22:16;;;;;;;6.50;3.45;;;44.90;34.40;;;;;;5093710;28;20429;-62
2021/07/26 11:24:45;;;;;;;5.88;3.40;;;45.00;34.00;;;;;;5074849;28;20115;-61
2021/07/26 11:27:16;;;;;;;6.22;3.35;;;45.20;33.70;;;;;;5073487;28;20032;-62
2021/07/26 11:29:48;;;;;;;6.63;3.28;;;45.30;33.50;;;;;;5073212;28;20056;-62
2021/07/26 11:32:18;;;;;;;6.97;3.10;;;45.60;32.70;;;;;;5053450;28;20087;-62
2021/07/26 11:34:45;;;;;;;6.15;3.53;;;45.50;33.00;;;;;;5054620;28;20025;-62
2021/07/26 11:37:14;;;;;;;5.63;2.88;;;45.50;32.60;;;;;;5093529;28;20478;-62
2021/07/26 11:39:51;;;;;;;5.93;2.78;;;45.60;32.60;;;;;;5093549;28;20075;-63
2021/07/26 11:42:24;;;;;;;6.20;3.00;;;45.60;32.40;;;;;;5089937;28;20104;-61
2021/07/26 11:44:50;;;;;;;5.03;3.00;;;45.60;32.40;;;;;;5072911;28;20115;-62
2021/07/26 11:47:17;;;;;;;4.70;3.00;;;45.80;32.60;;;;;;5073161;28;20092;-62
2021/07/26 11:49:50;;;;;;;4.72;2.90;;;45.90;32.50;;;;;;5053724;28;20483;-62
2021/07/26 11:52:17;;;;;;;4.80;3.22;;;46.00;32.30;;;;;;5039284;28;20036;-62
2021/07/26 11:54:43;;;;;;;5.93;3.40;;;46.10;33.30;;;;;;5064416;28;20051;-62
2021/07/26 11:57:14;;;;;;;6.65;3.50;;;46.20;32.60;;;;;;5065622;28;20422;-62
2021/07/26 11:59:46;;;;;;;4.82;3.00;;;46.20;32.60;;;;;;5058236;28;20021;-62
2021/07/26 12:02:27;;;;;;;4.80;3.20;;;46.20;32.50;;;;;;5064651;28;20045;-62
2021/07/26 12:04:54;;;;;;;6.55;3.30;;;46.30;32.00;;;;;;5060762;28;20040;-63
2021/07/26 12:07:44;;;;;;;7.60;3.17;;;46.30;32.40;;;;;;5052702;28;20448;-63
2021/07/26 12:10:15;;;;;;;6.28;3.58;;;46.40;32.20;;;;;;5072692;28;20070;-64
2021/07/26 12:12:46;;;;;;;5.30;3.40;;;46.40;32.60;;;;;;5054497;28;20111;-63
2021/07/26 12:15:27;;;;;;;7.25;4.15;;;46.40;32.70;;;;;;5070737;28;20028;-62
2021/07/26 12:18:02;;;;;;;5.13;3.67;;;46.20;31.50;;;;;;5070995;28;20036;-63
2021/07/26 12:20:28;;;;;;;6.07;3.63;;;45.90;31.60;;;;;;5070833;28;20426;-62
2021/07/26 12:22:54;;;;;;;5.38;3.42;;;46.00;31.50;;;;;;5072150;28;20036;-63
2021/07/26 12:25:22;;;;;;;5.85;3.00;;;46.20;31.30;;;;;;5061027;28;20107;-61
2021/07/26 12:28:01;;;;;;;6.20;3.03;;;46.40;31.20;;;;;;5065372;28;20021;-62
2021/07/26 12:30:43;;;;;;;5.65;3.03;;;46.60;30.70;;;;;;5064982;28;20376;-62
2021/07/26 12:33:11;;;;;;;5.00;3.00;;;46.70;31.00;;;;;;5071549;28;20747;-63
2021/07/26 12:35:37;;;;;;;4.88;2.80;;;46.80;31.20;;;;;;5072291;28;20103;-62
2021/07/26 12:38:17;;;;;;;4.57;3.10;;;46.90;31.10;;;;;;5054807;28;20028;-62
2021/07/26 12:40:45;;;;;;;5.45;3.42;;;46.60;30.80;;;;;;5072277;28;20074;-63
2021/07/26 12:43:16;;;;;;;5.28;3.40;;;45.60;31.20;;;;;;5053826;28;20105;-63
2021/07/26 12:45:58;;;;;;;5.43;3.03;;;44.60;31.60;;;;;;5071666;28;20013;-62
2021/07/26 12:48:26;;;;;;;5.03;3.30;;;43.60;31.90;;;;;;5071928;28;20551;-62
2021/07/26 12:50:52;;;;;;;4.78;3.25;;;42.70;31.90;;;;;;5071665;28;20131;-62